sensor_id;sensor_type;location;lat;lon;timestamp;P1;durP1;ratioP1;P2;durP2;ratioP2
5379;SDS011;2713;42.680;23.310;2022-09-03T00:02:34;6.93;;;5.93;;
5379;SDS011;2713;42.680;23.310;2022-09-03T00:05:05;6.80;;;6.10;;
5379;SDS011;2713;42.680;23.310;2022-09-03T00:07:39;7.03;;;5.77;;
5379;SDS011;2713;42.680;23.310;2022-09-03T00:10:14;6.83;;;6.23;;
5379;SDS011;2713;42.680;23.310;2022-09-03T00:12:44;9.13;;;6.43;;
5379;SDS011;2713;42.680;23.310;2022-09-03T00:15:13;6.43;;;5.83;;
5379;SDS011;2713;42.680;23.310;2022-09-03T00:17:43;7.33;;;6.53;;
5379;SDS011;2713;42.680;23.310;2022-09-03T00:20:15;9.60;;;7.07;;
5379;SDS011;2713;42.680;23.310;2022-09-03T00:22:46;8.20;;;6.00;;
5379;SDS011;2713;42.680;23.310;2022-09-03T00:25:17;8.17;;;6.27;;
5379;SDS011;2713;42.680;23.310;2022-09-03T00:27:50;7.90;;;6.83;;
5379;SDS011;2713;42.680;23.310;2022-09-03T00:30:20;7.30;;;6.43;;
5379;SDS011;2713;42.680;23.310;2022-09-03T00:32:50;8.50;;;6.70;;
5379;SDS011;2713;42.680;23.310;2022-09-03T00:35:22;8.00;;;6.20;;
5379;SDS011;2713;42.680;23.310;2022-09-03T00:37:53;7.53;;;6.70;;
5379;SDS011;2713;42.680;23.310;2022-09-03T00:40:26;8.80;;;6.60;;
5379;SDS011;2713;42.680;23.310;2022-09-03T00:43:04;8.90;;;6.80;;
5379;SDS011;2713;42.680;23.310;2022-09-03T00:45:39;7.00;;;6.30;;
5379;SDS011;2713;42.680;23.310;2022-09-03T00:48:14;7.30;;;6.60;;
5379;SDS011;2713;42.680;23.310;2022-09-03T00:50:50;8.50;;;7.30;;
5379;SDS011;2713;42.680;23.310;2022-09-03T00:53:30;9.80;;;7.40;;
5379;SDS011;2713;42.680;23.310;2022-09-03T00:56:06;8.07;;;6.97;;
5379;SDS011;2713;42.680;23.310;2022-09-03T00:58:47;8.87;;;6.50;;
5379;SDS011;2713;42.680;23.310;2022-09-03T01:01:26;7.70;;;6.50;;
5379;SDS011;2713;42.680;23.310;2022-09-03T01:04:05;6.67;;;6.07;;
5379;SDS011;2713;42.680;23.310;2022-09-03T01:06:47;7.80;;;7.10;;
5379;SDS011;2713;42.680;23.310;2022-09-03T01:09:26;7.27;;;6.37;;
5379;SDS011;2713;42.680;23.310;2022-09-03T01:12:02;7.43;;;6.40;;
5379;SDS011;2713;42.680;23.310;2022-09-03T01:14:42;7.07;;;6.37;;
5379;SDS011;2713;42.680;23.310;2022-09-03T01:17:21;8.20;;;6.00;;
5379;SDS011;2713;42.680;23.310;2022-09-03T01:20:01;6.87;;;6.07;;
5379;SDS011;2713;42.680;23.310;2022-09-03T01:23:09;6.70;;;5.90;;
5379;SDS011;2713;42.680;23.310;2022-09-03T01:26:07;8.03;;;6.40;;
5379;SDS011;2713;42.680;23.310;2022-09-03T01:28:53;7.20;;;5.77;;
5379;SDS011;2713;42.680;23.310;2022-09-03T01:34:15;6.67;;;5.63;;
5379;SDS011;2713;42.680;23.310;2022-09-03T01:36:52;6.23;;;5.63;;
5379;SDS011;2713;42.680;23.310;2022-09-03T01:39:27;8.63;;;6.50;;
5379;SDS011;2713;42.680;23.310;2022-09-03T01:42:06;9.50;;;6.60;;
5379;SDS011;2713;42.680;23.310;2022-09-03T01:44:46;8.63;;;6.23;;
5379;SDS011;2713;42.680;23.310;2022-09-03T01:47:27;7.60;;;6.57;;
5379;SDS011;2713;42.680;23.310;2022-09-03T01:50:04;8.43;;;7.17;;
5379;SDS011;2713;42.680;23.310;2022-09-03T01:52:38;8.30;;;6.60;;
5379;SDS011;2713;42.680;23.310;2022-09-03T01:55:15;6.57;;;5.97;;
5379;SDS011;2713;42.680;23.310;2022-09-03T01:57:51;8.80;;;6.20;;
5379;SDS011;2713;42.680;23.310;2022-09-03T02:00:23;7.53;;;6.50;;
5379;SDS011;2713;42.680;23.310;2022-09-03T02:02:53;6.93;;;6.30;;
5379;SDS011;2713;42.680;23.310;2022-09-03T02:05:20;7.80;;;6.93;;
5379;SDS011;2713;42.680;23.310;2022-09-03T02:07:55;8.67;;;7.33;;
5379;SDS011;2713;42.680;23.310;2022-09-03T02:10:24;12.63;;;6.47;;
5379;SDS011;2713;42.680;23.310;2022-09-03T02:12:56;8.43;;;7.13;;
5379;SDS011;2713;42.680;23.310;2022-09-03T02:15:27;7.80;;;6.37;;
5379;SDS011;2713;42.680;23.310;2022-09-03T02:17:55;7.73;;;6.60;;
5379;SDS011;2713;42.680;23.310;2022-09-03T02:20:27;7.53;;;6.60;;
5379;SDS011;2713;42.680;23.310;2022-09-03T02:22:55;7.47;;;6.43;;
5379;SDS011;2713;42.680;23.310;2022-09-03T02:25:25;7.50;;;6.40;;
5379;SDS011;2713;42.680;23.310;2022-09-03T02:27:57;7.80;;;6.63;;
5379;SDS011;2713;42.680;23.310;2022-09-03T02:30:26;7.47;;;6.60;;
5379;SDS011;2713;42.680;23.310;2022-09-03T02:32:53;8.27;;;6.80;;
5379;SDS011;2713;42.680;23.310;2022-09-03T02:35:20;7.90;;;7.10;;
5379;SDS011;2713;42.680;23.310;2022-09-03T02:37:47;7.43;;;6.43;;
5379;SDS011;2713;42.680;23.310;2022-09-03T02:40:14;7.03;;;6.30;;
5379;SDS011;2713;42.680;23.310;2022-09-03T02:42:41;9.00;;;7.60;;
5379;SDS011;2713;42.680;23.310;2022-09-03T02:45:10;6.80;;;6.03;;
5379;SDS011;2713;42.680;23.310;2022-09-03T02:47:48;8.93;;;6.50;;
5379;SDS011;2713;42.680;23.310;2022-09-03T02:50:17;8.20;;;6.67;;
5379;SDS011;2713;42.680;23.310;2022-09-03T02:52:44;7.30;;;6.60;;
5379;SDS011;2713;42.680;23.310;2022-09-03T02:55:11;9.00;;;7.03;;
5379;SDS011;2713;42.680;23.310;2022-09-03T02:57:38;7.63;;;6.83;;
5379;SDS011;2713;42.680;23.310;2022-09-03T03:00:06;8.83;;;6.80;;
5379;SDS011;2713;42.680;23.310;2022-09-03T03:02:33;7.53;;;6.43;;
5379;SDS011;2713;42.680;23.310;2022-09-03T03:05:02;7.27;;;6.57;;
5379;SDS011;2713;42.680;23.310;2022-09-03T03:07:31;6.67;;;6.07;;
5379;SDS011;2713;42.680;23.310;2022-09-03T03:10:02;8.23;;;7.10;;
5379;SDS011;2713;42.680;23.310;2022-09-03T03:12:29;7.57;;;6.70;;
5379;SDS011;2713;42.680;23.310;2022-09-03T03:14:56;9.60;;;7.17;;
5379;SDS011;2713;42.680;23.310;2022-09-03T03:17:22;7.50;;;6.80;;
5379;SDS011;2713;42.680;23.310;2022-09-03T03:19:50;9.27;;;7.27;;
5379;SDS011;2713;42.680;23.310;2022-09-03T03:22:18;8.40;;;6.87;;
5379;SDS011;2713;42.680;23.310;2022-09-03T03:24:45;8.10;;;7.03;;
5379;SDS011;2713;42.680;23.310;2022-09-03T03:27:14;6.57;;;5.97;;
5379;SDS011;2713;42.680;23.310;2022-09-03T03:29:42;6.73;;;6.03;;
5379;SDS011;2713;42.680;23.310;2022-09-03T03:32:09;9.57;;;7.13;;
5379;SDS011;2713;42.680;23.310;2022-09-03T03:34:35;7.93;;;6.63;;
5379;SDS011;2713;42.680;23.310;2022-09-03T03:37:04;10.30;;;7.03;;
5379;SDS011;2713;42.680;23.310;2022-09-03T03:39:32;9.37;;;6.43;;
5379;SDS011;2713;42.680;23.310;2022-09-03T03:41:59;7.63;;;6.50;;
5379;SDS011;2713;42.680;23.310;2022-09-03T03:44:26;9.00;;;6.70;;
5379;SDS011;2713;42.680;23.310;2022-09-03T03:46:53;8.97;;;6.87;;
5379;SDS011;2713;42.680;23.310;2022-09-03T03:49:20;8.10;;;6.90;;
5379;SDS011;2713;42.680;23.310;2022-09-03T03:51:47;8.07;;;6.90;;
5379;SDS011;2713;42.680;23.310;2022-09-03T03:54:14;10.90;;;7.13;;
5379;SDS011;2713;42.680;23.310;2022-09-03T03:56:42;8.70;;;7.13;;
5379;SDS011;2713;42.680;23.310;2022-09-03T03:59:09;7.93;;;6.63;;
5379;SDS011;2713;42.680;23.310;2022-09-03T04:01:36;7.60;;;6.80;;
5379;SDS011;2713;42.680;23.310;2022-09-03T04:04:02;8.53;;;6.73;;
5379;SDS011;2713;42.680;23.310;2022-09-03T04:06:29;9.53;;;7.20;;
5379;SDS011;2713;42.680;23.310;2022-09-03T04:08:56;10.30;;;7.90;;
5379;SDS011;2713;42.680;23.310;2022-09-03T04:11:24;8.53;;;7.00;;
5379;SDS011;2713;42.680;23.310;2022-09-03T04:13:52;8.47;;;7.37;;
5379;SDS011;2713;42.680;23.310;2022-09-03T04:16:20;8.23;;;7.03;;
5379;SDS011;2713;42.680;23.310;2022-09-03T04:18:47;8.60;;;6.90;;
5379;SDS011;2713;42.680;23.310;2022-09-03T04:21:16;10.63;;;9.13;;
5379;SDS011;2713;42.680;23.310;2022-09-03T04:23:44;9.13;;;7.10;;
5379;SDS011;2713;42.680;23.310;2022-09-03T04:26:12;8.23;;;6.90;;
5379;SDS011;2713;42.680;23.310;2022-09-03T04:28:40;10.10;;;7.60;;
5379;SDS011;2713;42.680;23.310;2022-09-03T04:31:11;9.80;;;7.80;;
5379;SDS011;2713;42.680;23.310;2022-09-03T04:33:39;11.50;;;8.27;;
5379;SDS011;2713;42.680;23.310;2022-09-03T04:36:07;10.33;;;8.30;;
5379;SDS011;2713;42.680;23.310;2022-09-03T04:38:36;9.03;;;7.60;;
5379;SDS011;2713;42.680;23.310;2022-09-03T04:41:05;8.83;;;7.70;;
5379;SDS011;2713;42.680;23.310;2022-09-03T04:43:33;9.13;;;6.83;;
5379;SDS011;2713;42.680;23.310;2022-09-03T04:46:01;9.63;;;8.20;;
5379;SDS011;2713;42.680;23.310;2022-09-03T04:48:30;9.57;;;7.23;;
5379;SDS011;2713;42.680;23.310;2022-09-03T04:51:00;16.53;;;7.13;;
5379;SDS011;2713;42.680;23.310;2022-09-03T04:53:29;9.10;;;7.20;;
5379;SDS011;2713;42.680;23.310;2022-09-03T04:55:56;9.20;;;7.20;;
5379;SDS011;2713;42.680;23.310;2022-09-03T04:58:23;10.20;;;7.70;;
5379;SDS011;2713;42.680;23.310;2022-09-03T05:00:50;9.57;;;7.50;;
5379;SDS011;2713;42.680;23.310;2022-09-03T05:03:17;9.30;;;7.30;;
5379;SDS011;2713;42.680;23.310;2022-09-03T05:05:51;11.27;;;6.97;;
5379;SDS011;2713;42.680;23.310;2022-09-03T05:08:19;10.67;;;8.23;;
5379;SDS011;2713;42.680;23.310;2022-09-03T05:10:46;8.50;;;7.00;;
5379;SDS011;2713;42.680;23.310;2022-09-03T05:13:13;6.97;;;6.27;;
5379;SDS011;2713;42.680;23.310;2022-09-03T05:15:40;10.47;;;6.83;;
5379;SDS011;2713;42.680;23.310;2022-09-03T05:18:09;7.90;;;6.90;;
5379;SDS011;2713;42.680;23.310;2022-09-03T05:20:36;7.07;;;6.17;;
5379;SDS011;2713;42.680;23.310;2022-09-03T05:23:04;7.03;;;6.37;;
5379;SDS011;2713;42.680;23.310;2022-09-03T05:25:31;8.73;;;7.70;;
5379;SDS011;2713;42.680;23.310;2022-09-03T05:27:58;7.40;;;6.70;;
5379;SDS011;2713;42.680;23.310;2022-09-03T05:30:26;9.07;;;7.80;;
5379;SDS011;2713;42.680;23.310;2022-09-03T05:32:53;9.40;;;7.17;;
5379;SDS011;2713;42.680;23.310;2022-09-03T05:35:19;10.10;;;8.00;;
5379;SDS011;2713;42.680;23.310;2022-09-03T05:37:46;11.70;;;9.23;;
5379;SDS011;2713;42.680;23.310;2022-09-03T05:40:14;8.83;;;7.13;;
5379;SDS011;2713;42.680;23.310;2022-09-03T05:42:41;7.03;;;6.33;;
5379;SDS011;2713;42.680;23.310;2022-09-03T05:45:08;7.87;;;6.83;;
5379;SDS011;2713;42.680;23.310;2022-09-03T05:47:36;8.97;;;7.30;;
5379;SDS011;2713;42.680;23.310;2022-09-03T05:50:05;8.77;;;6.93;;
5379;SDS011;2713;42.680;23.310;2022-09-03T05:52:35;7.03;;;6.33;;
5379;SDS011;2713;42.680;23.310;2022-09-03T05:55:02;7.30;;;6.60;;
5379;SDS011;2713;42.680;23.310;2022-09-03T05:57:30;7.70;;;6.90;;
5379;SDS011;2713;42.680;23.310;2022-09-03T05:59:57;7.93;;;6.90;;
5379;SDS011;2713;42.680;23.310;2022-09-03T06:02:24;7.33;;;6.53;;
5379;SDS011;2713;42.680;23.310;2022-09-03T06:04:51;7.13;;;6.40;;
5379;SDS011;2713;42.680;23.310;2022-09-03T06:07:18;8.80;;;6.73;;
5379;SDS011;2713;42.680;23.310;2022-09-03T06:09:46;8.10;;;6.70;;
5379;SDS011;2713;42.680;23.310;2022-09-03T06:12:12;6.63;;;5.93;;
5379;SDS011;2713;42.680;23.310;2022-09-03T06:14:41;7.83;;;7.03;;
5379;SDS011;2713;42.680;23.310;2022-09-03T06:17:07;6.60;;;6.00;;
5379;SDS011;2713;42.680;23.310;2022-09-03T06:19:36;6.70;;;5.63;;
5379;SDS011;2713;42.680;23.310;2022-09-03T06:22:04;7.33;;;6.53;;
5379;SDS011;2713;42.680;23.310;2022-09-03T06:24:31;7.93;;;6.90;;
5379;SDS011;2713;42.680;23.310;2022-09-03T06:26:57;7.00;;;6.30;;
5379;SDS011;2713;42.680;23.310;2022-09-03T06:29:25;7.00;;;5.70;;
5379;SDS011;2713;42.680;23.310;2022-09-03T06:31:57;7.20;;;6.50;;
5379;SDS011;2713;42.680;23.310;2022-09-03T06:34:24;8.30;;;7.40;;
5379;SDS011;2713;42.680;23.310;2022-09-03T06:36:52;7.83;;;7.03;;
5379;SDS011;2713;42.680;23.310;2022-09-03T06:39:19;9.60;;;7.30;;
5379;SDS011;2713;42.680;23.310;2022-09-03T06:41:46;11.13;;;6.80;;
5379;SDS011;2713;42.680;23.310;2022-09-03T06:44:23;8.13;;;7.30;;
5379;SDS011;2713;42.680;23.310;2022-09-03T06:46:49;10.60;;;7.73;;
5379;SDS011;2713;42.680;23.310;2022-09-03T06:49:19;9.00;;;7.57;;
5379;SDS011;2713;42.680;23.310;2022-09-03T06:51:45;8.60;;;7.70;;
5379;SDS011;2713;42.680;23.310;2022-09-03T06:54:12;9.80;;;7.30;;
5379;SDS011;2713;42.680;23.310;2022-09-03T06:56:40;8.10;;;6.37;;
5379;SDS011;2713;42.680;23.310;2022-09-03T06:59:07;8.00;;;6.33;;
5379;SDS011;2713;42.680;23.310;2022-09-03T07:01:35;9.67;;;7.20;;
5379;SDS011;2713;42.680;23.310;2022-09-03T07:04:05;6.93;;;6.23;;
5379;SDS011;2713;42.680;23.310;2022-09-03T07:06:34;8.23;;;6.60;;
5379;SDS011;2713;42.680;23.310;2022-09-03T07:09:03;7.80;;;6.47;;
5379;SDS011;2713;42.680;23.310;2022-09-03T07:11:30;8.20;;;7.10;;
5379;SDS011;2713;42.680;23.310;2022-09-03T07:13:58;9.43;;;7.23;;
5379;SDS011;2713;42.680;23.310;2022-09-03T07:16:25;7.73;;;6.93;;
5379;SDS011;2713;42.680;23.310;2022-09-03T07:18:53;12.43;;;8.33;;
5379;SDS011;2713;42.680;23.310;2022-09-03T07:21:22;10.63;;;7.27;;
5379;SDS011;2713;42.680;23.310;2022-09-03T07:23:51;9.93;;;7.10;;
5379;SDS011;2713;42.680;23.310;2022-09-03T07:26:20;7.90;;;7.10;;
5379;SDS011;2713;42.680;23.310;2022-09-03T07:28:48;7.60;;;6.80;;
5379;SDS011;2713;42.680;23.310;2022-09-03T07:31:17;7.20;;;6.50;;
5379;SDS011;2713;42.680;23.310;2022-09-03T07:33:50;7.40;;;6.60;;
5379;SDS011;2713;42.680;23.310;2022-09-03T07:36:20;7.57;;;6.77;;
5379;SDS011;2713;42.680;23.310;2022-09-03T07:38:49;8.70;;;7.70;;
5379;SDS011;2713;42.680;23.310;2022-09-03T07:41:19;9.07;;;8.13;;
5379;SDS011;2713;42.680;23.310;2022-09-03T07:43:47;11.03;;;8.20;;
5379;SDS011;2713;42.680;23.310;2022-09-03T07:46:14;8.00;;;7.20;;
5379;SDS011;2713;42.680;23.310;2022-09-03T07:48:45;7.57;;;6.87;;
5379;SDS011;2713;42.680;23.310;2022-09-03T07:51:15;7.30;;;6.60;;
5379;SDS011;2713;42.680;23.310;2022-09-03T07:53:42;7.40;;;6.70;;
5379;SDS011;2713;42.680;23.310;2022-09-03T07:56:10;7.67;;;6.87;;
5379;SDS011;2713;42.680;23.310;2022-09-03T07:58:38;8.17;;;7.37;;
5379;SDS011;2713;42.680;23.310;2022-09-03T08:01:06;8.20;;;7.40;;
5379;SDS011;2713;42.680;23.310;2022-09-03T08:03:35;6.57;;;5.97;;
5379;SDS011;2713;42.680;23.310;2022-09-03T08:06:02;10.23;;;8.57;;
5379;SDS011;2713;42.680;23.310;2022-09-03T08:08:30;9.80;;;8.80;;
5379;SDS011;2713;42.680;23.310;2022-09-03T08:11:02;6.20;;;5.60;;
5379;SDS011;2713;42.680;23.310;2022-09-03T08:13:34;6.90;;;5.60;;
5379;SDS011;2713;42.680;23.310;2022-09-03T08:16:02;5.87;;;5.37;;
5379;SDS011;2713;42.680;23.310;2022-09-03T08:18:29;6.13;;;5.53;;
5379;SDS011;2713;42.680;23.310;2022-09-03T08:21:01;7.87;;;7.07;;
5379;SDS011;2713;42.680;23.310;2022-09-03T08:23:28;6.60;;;5.90;;
5379;SDS011;2713;42.680;23.310;2022-09-03T08:25:57;6.00;;;5.50;;
5379;SDS011;2713;42.680;23.310;2022-09-03T08:28:24;6.67;;;6.00;;
5379;SDS011;2713;42.680;23.310;2022-09-03T08:30:52;5.13;;;4.73;;
5379;SDS011;2713;42.680;23.310;2022-09-03T08:33:19;5.83;;;5.33;;
5379;SDS011;2713;42.680;23.310;2022-09-03T08:36:02;6.70;;;6.10;;
5379;SDS011;2713;42.680;23.310;2022-09-03T08:38:30;6.00;;;5.47;;
5379;SDS011;2713;42.680;23.310;2022-09-03T08:41:05;5.97;;;5.37;;
5379;SDS011;2713;42.680;23.310;2022-09-03T08:43:37;7.40;;;6.70;;
5379;SDS011;2713;42.680;23.310;2022-09-03T08:46:20;6.87;;;6.27;;
5379;SDS011;2713;42.680;23.310;2022-09-03T08:48:51;7.10;;;6.30;;
5379;SDS011;2713;42.680;23.310;2022-09-03T08:51:18;6.50;;;5.90;;
5379;SDS011;2713;42.680;23.310;2022-09-03T08:53:52;6.77;;;5.67;;
5379;SDS011;2713;42.680;23.310;2022-09-03T08:56:23;11.13;;;9.90;;
5379;SDS011;2713;42.680;23.310;2022-09-03T08:58:53;8.53;;;7.63;;
5379;SDS011;2713;42.680;23.310;2022-09-03T09:01:25;7.40;;;6.70;;
5379;SDS011;2713;42.680;23.310;2022-09-03T09:04:04;9.40;;;8.47;;
5379;SDS011;2713;42.680;23.310;2022-09-03T09:06:45;11.77;;;10.50;;
5379;SDS011;2713;42.680;23.310;2022-09-03T09:09:21;8.03;;;7.33;;
5379;SDS011;2713;42.680;23.310;2022-09-03T09:11:58;12.00;;;9.93;;
5379;SDS011;2713;42.680;23.310;2022-09-03T09:14:37;9.40;;;7.47;;
5379;SDS011;2713;42.680;23.310;2022-09-03T09:17:16;8.40;;;7.60;;
5379;SDS011;2713;42.680;23.310;2022-09-03T09:19:59;7.47;;;6.80;;
5379;SDS011;2713;42.680;23.310;2022-09-03T09:22:32;6.83;;;6.23;;
5379;SDS011;2713;42.680;23.310;2022-09-03T09:25:00;6.57;;;5.93;;
5379;SDS011;2713;42.680;23.310;2022-09-03T09:27:33;8.10;;;7.30;;
5379;SDS011;2713;42.680;23.310;2022-09-03T09:30:00;8.03;;;7.23;;
5379;SDS011;2713;42.680;23.310;2022-09-03T09:32:32;8.40;;;7.07;;
5379;SDS011;2713;42.680;23.310;2022-09-03T09:34:59;8.83;;;7.93;;
5379;SDS011;2713;42.680;23.310;2022-09-03T09:37:26;8.40;;;6.40;;
5379;SDS011;2713;42.680;23.310;2022-09-03T09:39:53;6.20;;;5.70;;
5379;SDS011;2713;42.680;23.310;2022-09-03T09:42:21;6.40;;;5.80;;
5379;SDS011;2713;42.680;23.310;2022-09-03T09:44:49;6.20;;;5.70;;
5379;SDS011;2713;42.680;23.310;2022-09-03T09:47:20;5.83;;;5.33;;
5379;SDS011;2713;42.680;23.310;2022-09-03T09:49:52;6.13;;;5.60;;
5379;SDS011;2713;42.680;23.310;2022-09-03T09:52:21;7.30;;;6.60;;
5379;SDS011;2713;42.680;23.310;2022-09-03T09:54:50;7.23;;;6.50;;
5379;SDS011;2713;42.680;23.310;2022-09-03T09:57:21;6.47;;;5.83;;
5379;SDS011;2713;42.680;23.310;2022-09-03T09:59:48;7.50;;;6.80;;
5379;SDS011;2713;42.680;23.310;2022-09-03T10:02:18;7.37;;;6.70;;
5379;SDS011;2713;42.680;23.310;2022-09-03T10:04:53;7.47;;;6.77;;
5379;SDS011;2713;42.680;23.310;2022-09-03T10:07:25;10.97;;;9.87;;
5379;SDS011;2713;42.680;23.310;2022-09-03T10:09:57;6.93;;;6.33;;
5379;SDS011;2713;42.680;23.310;2022-09-03T10:12:27;6.57;;;6.07;;
5379;SDS011;2713;42.680;23.310;2022-09-03T10:14:59;7.30;;;6.70;;
5379;SDS011;2713;42.680;23.310;2022-09-03T10:17:38;7.57;;;6.87;;
5379;SDS011;2713;42.680;23.310;2022-09-03T10:20:12;7.53;;;6.90;;
5379;SDS011;2713;42.680;23.310;2022-09-03T10:22:55;7.20;;;6.07;;
5379;SDS011;2713;42.680;23.310;2022-09-03T10:25:28;7.53;;;6.93;;
5379;SDS011;2713;42.680;23.310;2022-09-03T10:28:03;6.97;;;6.33;;
5379;SDS011;2713;42.680;23.310;2022-09-03T10:30:35;7.50;;;6.87;;
5379;SDS011;2713;42.680;23.310;2022-09-03T10:33:14;6.57;;;6.07;;
5379;SDS011;2713;42.680;23.310;2022-09-03T10:35:48;7.77;;;7.00;;
5379;SDS011;2713;42.680;23.310;2022-09-03T10:38:20;7.67;;;7.00;;
5379;SDS011;2713;42.680;23.310;2022-09-03T10:40:57;6.10;;;5.60;;
5379;SDS011;2713;42.680;23.310;2022-09-03T10:46:32;6.40;;;5.83;;
5379;SDS011;2713;42.680;23.310;2022-09-03T10:49:13;5.90;;;5.40;;
5379;SDS011;2713;42.680;23.310;2022-09-03T10:51:51;7.30;;;5.50;;
5379;SDS011;2713;42.680;23.310;2022-09-03T10:54:29;5.93;;;5.43;;
5379;SDS011;2713;42.680;23.310;2022-09-03T10:57:02;5.83;;;5.33;;
5379;SDS011;2713;42.680;23.310;2022-09-03T10:59:41;5.47;;;5.07;;
5379;SDS011;2713;42.680;23.310;2022-09-03T11:02:26;7.77;;;6.10;;
5379;SDS011;2713;42.680;23.310;2022-09-03T11:05:04;6.70;;;6.10;;
5379;SDS011;2713;42.680;23.310;2022-09-03T11:07:36;7.90;;;5.70;;
5379;SDS011;2713;42.680;23.310;2022-09-03T11:10:11;5.50;;;5.10;;
5379;SDS011;2713;42.680;23.310;2022-09-03T11:12:43;6.00;;;5.40;;
5379;SDS011;2713;42.680;23.310;2022-09-03T11:15:17;5.77;;;5.27;;
5379;SDS011;2713;42.680;23.310;2022-09-03T11:17:50;5.87;;;5.37;;
5379;SDS011;2713;42.680;23.310;2022-09-03T11:20:22;6.00;;;5.50;;
5379;SDS011;2713;42.680;23.310;2022-09-03T11:22:52;5.50;;;5.00;;
5379;SDS011;2713;42.680;23.310;2022-09-03T11:25:24;5.90;;;5.40;;
5379;SDS011;2713;42.680;23.310;2022-09-03T11:27:59;6.40;;;5.90;;
5379;SDS011;2713;42.680;23.310;2022-09-03T11:30:37;5.60;;;5.10;;
5379;SDS011;2713;42.680;23.310;2022-09-03T11:33:13;5.77;;;5.27;;
5379;SDS011;2713;42.680;23.310;2022-09-03T11:35:45;5.93;;;5.33;;
5379;SDS011;2713;42.680;23.310;2022-09-03T11:38:19;6.67;;;6.07;;
5379;SDS011;2713;42.680;23.310;2022-09-03T11:40:56;6.10;;;5.60;;
5379;SDS011;2713;42.680;23.310;2022-09-03T11:43:25;7.00;;;6.40;;
5379;SDS011;2713;42.680;23.310;2022-09-03T11:46:01;7.07;;;6.47;;
5379;SDS011;2713;42.680;23.310;2022-09-03T11:48:37;6.17;;;5.67;;
5379;SDS011;2713;42.680;23.310;2022-09-03T11:53:59;8.43;;;7.63;;
5379;SDS011;2713;42.680;23.310;2022-09-03T11:56:27;6.33;;;5.80;;
5379;SDS011;2713;42.680;23.310;2022-09-03T11:59:02;7.30;;;6.17;;
5379;SDS011;2713;42.680;23.310;2022-09-03T12:01:41;5.80;;;5.30;;
5379;SDS011;2713;42.680;23.310;2022-09-03T12:04:16;6.43;;;5.93;;
5379;SDS011;2713;42.680;23.310;2022-09-03T12:06:48;6.63;;;6.03;;
5379;SDS011;2713;42.680;23.310;2022-09-03T12:09:33;5.93;;;5.27;;
5379;SDS011;2713;42.680;23.310;2022-09-03T12:12:23;6.00;;;5.43;;
5379;SDS011;2713;42.680;23.310;2022-09-03T12:14:59;7.20;;;6.60;;
5379;SDS011;2713;42.680;23.310;2022-09-03T12:17:33;7.03;;;6.43;;
5379;SDS011;2713;42.680;23.310;2022-09-03T12:20:10;9.50;;;8.60;;
5379;SDS011;2713;42.680;23.310;2022-09-03T12:22:38;6.77;;;6.00;;
5379;SDS011;2713;42.680;23.310;2022-09-03T12:25:09;6.80;;;6.20;;
5379;SDS011;2713;42.680;23.310;2022-09-03T12:27:39;6.20;;;5.70;;
5379;SDS011;2713;42.680;23.310;2022-09-03T12:30:13;7.77;;;7.07;;
5379;SDS011;2713;42.680;23.310;2022-09-03T12:32:42;7.40;;;6.80;;
5379;SDS011;2713;42.680;23.310;2022-09-03T12:35:10;8.00;;;6.90;;
5379;SDS011;2713;42.680;23.310;2022-09-03T12:37:38;7.10;;;6.40;;
5379;SDS011;2713;42.680;23.310;2022-09-03T12:40:16;6.23;;;5.63;;
5379;SDS011;2713;42.680;23.310;2022-09-03T12:42:45;5.73;;;5.23;;
5379;SDS011;2713;42.680;23.310;2022-09-03T12:45:13;5.80;;;5.20;;
5379;SDS011;2713;42.680;23.310;2022-09-03T12:47:43;6.10;;;5.10;;
5379;SDS011;2713;42.680;23.310;2022-09-03T12:50:11;6.70;;;6.10;;
5379;SDS011;2713;42.680;23.310;2022-09-03T12:52:40;6.00;;;5.40;;
5379;SDS011;2713;42.680;23.310;2022-09-03T12:55:20;5.53;;;5.03;;
5379;SDS011;2713;42.680;23.310;2022-09-03T12:57:55;5.80;;;5.30;;
5379;SDS011;2713;42.680;23.310;2022-09-03T13:00:29;5.10;;;4.70;;
5379;SDS011;2713;42.680;23.310;2022-09-03T13:02:59;5.60;;;5.10;;
5379;SDS011;2713;42.680;23.310;2022-09-03T13:05:31;5.17;;;4.67;;
5379;SDS011;2713;42.680;23.310;2022-09-03T13:08:01;6.00;;;5.20;;
5379;SDS011;2713;42.680;23.310;2022-09-03T13:10:33;5.93;;;5.43;;
5379;SDS011;2713;42.680;23.310;2022-09-03T13:13:02;5.57;;;5.07;;
5379;SDS011;2713;42.680;23.310;2022-09-03T13:15:52;5.50;;;5.00;;
5379;SDS011;2713;42.680;23.310;2022-09-03T13:18:50;5.87;;;5.33;;
5379;SDS011;2713;42.680;23.310;2022-09-03T13:21:28;5.60;;;5.10;;
5379;SDS011;2713;42.680;23.310;2022-09-03T13:24:04;5.03;;;4.50;;
5379;SDS011;2713;42.680;23.310;2022-09-03T13:26:47;4.90;;;4.50;;
5379;SDS011;2713;42.680;23.310;2022-09-03T13:29:25;5.33;;;4.87;;
5379;SDS011;2713;42.680;23.310;2022-09-03T13:32:07;6.07;;;4.87;;
5379;SDS011;2713;42.680;23.310;2022-09-03T13:34:46;5.80;;;5.30;;
5379;SDS011;2713;42.680;23.310;2022-09-03T13:37:22;4.40;;;4.00;;
5379;SDS011;2713;42.680;23.310;2022-09-03T13:39:53;5.90;;;5.07;;
5379;SDS011;2713;42.680;23.310;2022-09-03T13:42:25;4.80;;;4.50;;
5379;SDS011;2713;42.680;23.310;2022-09-03T13:45:00;3.83;;;3.20;;
5379;SDS011;2713;42.680;23.310;2022-09-03T13:47:32;3.40;;;3.20;;
5379;SDS011;2713;42.680;23.310;2022-09-03T13:50:24;4.10;;;3.80;;
5379;SDS011;2713;42.680;23.310;2022-09-03T13:52:56;4.93;;;4.43;;
5379;SDS011;2713;42.680;23.310;2022-09-03T13:55:30;5.20;;;4.70;;
5379;SDS011;2713;42.680;23.310;2022-09-03T13:58:04;4.00;;;3.70;;
5379;SDS011;2713;42.680;23.310;2022-09-03T14:00:36;4.40;;;4.00;;
5379;SDS011;2713;42.680;23.310;2022-09-03T14:03:09;4.10;;;3.70;;
5379;SDS011;2713;42.680;23.310;2022-09-03T14:05:49;4.37;;;3.97;;
5379;SDS011;2713;42.680;23.310;2022-09-03T14:08:29;4.20;;;3.90;;
5379;SDS011;2713;42.680;23.310;2022-09-03T14:11:02;4.43;;;4.07;;
5379;SDS011;2713;42.680;23.310;2022-09-03T14:13:47;5.20;;;4.80;;
5379;SDS011;2713;42.680;23.310;2022-09-03T14:16:26;4.50;;;4.10;;
5379;SDS011;2713;42.680;23.310;2022-09-03T14:19:01;5.00;;;4.50;;
5379;SDS011;2713;42.680;23.310;2022-09-03T14:21:33;4.80;;;4.40;;
5379;SDS011;2713;42.680;23.310;2022-09-03T14:24:09;5.67;;;5.17;;
5379;SDS011;2713;42.680;23.310;2022-09-03T14:26:48;5.37;;;4.87;;
5379;SDS011;2713;42.680;23.310;2022-09-03T14:29:19;5.20;;;4.80;;
5379;SDS011;2713;42.680;23.310;2022-09-03T14:31:54;5.13;;;4.70;;
5379;SDS011;2713;42.680;23.310;2022-09-03T14:34:49;4.73;;;4.37;;
5379;SDS011;2713;42.680;23.310;2022-09-03T14:37:32;4.70;;;4.33;;
5379;SDS011;2713;42.680;23.310;2022-09-03T14:40:13;4.50;;;4.10;;
5379;SDS011;2713;42.680;23.310;2022-09-03T14:42:56;4.93;;;4.47;;
5379;SDS011;2713;42.680;23.310;2022-09-03T14:45:46;7.87;;;5.23;;
5379;SDS011;2713;42.680;23.310;2022-09-03T14:48:29;4.53;;;4.13;;
5379;SDS011;2713;42.680;23.310;2022-09-03T14:51:15;5.53;;;4.70;;
5379;SDS011;2713;42.680;23.310;2022-09-03T14:54:00;4.97;;;4.37;;
5379;SDS011;2713;42.680;23.310;2022-09-03T14:56:43;4.10;;;3.70;;
5379;SDS011;2713;42.680;23.310;2022-09-03T15:05:12;4.27;;;3.37;;
5379;SDS011;2713;42.680;23.310;2022-09-03T15:07:47;4.00;;;3.60;;
5379;SDS011;2713;42.680;23.310;2022-09-03T15:10:20;5.73;;;3.73;;
5379;SDS011;2713;42.680;23.310;2022-09-03T15:12:56;3.63;;;3.40;;
5379;SDS011;2713;42.680;23.310;2022-09-03T15:15:29;4.70;;;4.30;;
5379;SDS011;2713;42.680;23.310;2022-09-03T15:18:08;4.33;;;3.93;;
5379;SDS011;2713;42.680;23.310;2022-09-03T15:20:49;5.00;;;4.50;;
5379;SDS011;2713;42.680;23.310;2022-09-03T15:23:22;4.20;;;3.90;;
5379;SDS011;2713;42.680;23.310;2022-09-03T15:29:05;4.67;;;4.27;;
5379;SDS011;2713;42.680;23.310;2022-09-03T15:31:44;5.43;;;4.40;;
5379;SDS011;2713;42.680;23.310;2022-09-03T15:34:31;5.27;;;4.43;;
5379;SDS011;2713;42.680;23.310;2022-09-03T15:37:11;4.50;;;4.07;;
5379;SDS011;2713;42.680;23.310;2022-09-03T15:39:42;7.40;;;4.30;;
5379;SDS011;2713;42.680;23.310;2022-09-03T15:42:13;6.17;;;4.50;;
5379;SDS011;2713;42.680;23.310;2022-09-03T15:44:48;4.90;;;4.50;;
5379;SDS011;2713;42.680;23.310;2022-09-03T15:47:28;7.50;;;4.20;;
5379;SDS011;2713;42.680;23.310;2022-09-03T15:50:01;4.60;;;4.13;;